Time;durP1;ratioP1;P1;durP2;ratioP2;P2;SDS_P1;SDS_P2;PMS_P1;PMS_P2;Temp;Humidity;BMP_temperature;BMP_pressure;BME280_temperature;BME280_humidity;BME280_pressure;Samples;Min_cycle;Max_cycle;Signal;HPM_P1;HPM_P2
2022/05/22 00:02:21;;;;;;;7.20;3.85;;;12.70;99.90;;;;;;5001856;28;20100;-63
2022/05/22 00:04:51;;;;;;;9.23;3.97;;;12.70;99.90;;;;;;5005033;28;20133;-64
2022/05/22 00:07:18;;;;;;;7.03;3.50;;;12.70;99.90;;;;;;5011893;28;20046;-64
2022/05/22 00:09:45;;;;;;;5.30;3.60;;;12.60;99.90;;;;;;5011928;28;20046;-64
2022/05/22 00:12:12;;;;;;;10.70;3.67;;;12.60;99.90;;;;;;5011387;28;20042;-64
2022/05/22 00:14:39;;;;;;;6.85;3.92;;;12.50;99.90;;;;;;4992770;28;20108;-63
2022/05/22 00:17:06;;;;;;;6.38;3.58;;;12.60;99.90;;;;;;4975083;28;20130;-64
2022/05/22 00:19:34;;;;;;;8.18;4.00;;;12.60;99.90;;;;;;4990657;28;20101;-64
2022/05/22 00:22:01;;;;;;;4.93;3.30;;;12.50;99.90;;;;;;4991037;28;20050;-63
2022/05/22 00:24:29;;;;;;;8.57;3.80;;;12.40;99.90;;;;;;4992152;28;20562;-64
2022/05/22 00:26:57;;;;;;;8.30;3.85;;;12.40;99.90;;;;;;4991952;28;20499;-64
2022/05/22 00:29:29;;;;;;;6.20;3.50;;;12.30;99.90;;;;;;4995716;28;20486;-64
2022/05/22 00:31:57;;;;;;;4.70;3.63;;;12.30;99.90;;;;;;4991525;28;20054;-63
2022/05/22 00:34:25;;;;;;;7.43;3.72;;;12.20;99.90;;;;;;4974400;28;20050;-64
2022/05/22 00:36:51;;;;;;;;;;;12.20;99.90;;;;;;4975028;28;20046;-64
2022/05/22 00:39:18;;;;;;;9.60;4.03;;;12.20;99.90;;;;;;4996506;28;19992;-64
2022/05/22 00:41:51;;;;;;;6.93;3.60;;;12.20;99.90;;;;;;4973663;28;20104;-64
2022/05/22 00:44:19;;;;;;;4.93;3.22;;;12.20;99.90;;;;;;4992056;28;20046;-64
2022/05/22 00:46:47;;;;;;;5.82;3.45;;;12.10;99.90;;;;;;4974307;28;20046;-64
2022/05/22 00:49:21;;;;;;;6.32;3.03;;;12.20;99.90;;;;;;4980150;28;20038;-63
2022/05/22 00:51:57;;;;;;;9.40;3.38;;;12.30;99.90;;;;;;4991450;28;20048;-64
2022/05/22 00:54:27;;;;;;;4.43;2.92;;;12.20;99.90;;;;;;4990130;28;20050;-64
2022/05/22 00:57:06;;;;;;;4.55;3.17;;;12.10;99.90;;;;;;4993735;28;20042;-63
2022/05/22 00:59:42;;;;;;;5.45;3.13;;;12.00;99.90;;;;;;4995780;28;20096;-63
2022/05/22 01:02:11;;;;;;;4.55;3.42;;;11.90;99.90;;;;;;4995428;28;20042;-64
2022/05/22 01:04:38;;;;;;;5.88;3.10;;;11.90;99.90;;;;;;4996372;28;20412;-64
2022/05/22 01:07:07;;;;;;;7.00;3.22;;;11.90;99.90;;;;;;4994416;28;20511;-64
2022/05/22 01:09:35;;;;;;;5.47;3.42;;;11.90;99.90;;;;;;4977996;28;20042;-64
2022/05/22 01:12:17;;;;;;;5.85;2.88;;;11.90;99.90;;;;;;4976927;28;20054;-64
2022/05/22 01:14:50;;;;;;;6.25;2.88;;;11.80;99.90;;;;;;4994251;28;20089;-63
2022/05/22 01:17:17;;;;;;;7.13;2.72;;;11.90;99.90;;;;;;4978082;28;20046;-64
2022/05/22 01:19:58;;;;;;;5.30;3.00;;;11.80;99.90;;;;;;4977898;28;20511;-64
2022/05/22 01:22:27;;;;;;;4.85;2.92;;;11.80;99.90;;;;;;4981393;28;20073;-63
2022/05/22 01:24:55;;;;;;;6.28;2.92;;;11.70;99.90;;;;;;4993628;28;20415;-64
2022/05/22 01:27:23;;;;;;;4.65;2.97;;;11.70;99.90;;;;;;4977808;28;20681;-64
2022/05/22 01:30:04;;;;;;;3.67;2.55;;;11.70;99.90;;;;;;4994473;28;20096;-64
2022/05/22 01:32:34;;;;;;;7.03;3.10;;;11.70;99.90;;;;;;4985202;28;20046;-64
2022/05/22 01:35:05;;;;;;;6.40;2.90;;;11.60;99.90;;;;;;4995216;28;20101;-64
2022/05/22 01:37:32;;;;;;;6.32;3.05;;;11.60;99.90;;;;;;4977694;28;20043;-64
2022/05/22 01:40:00;;;;;;;7.28;2.80;;;11.60;99.90;;;;;;4993306;28;20046;-64
2022/05/22 01:42:28;;;;;;;2.85;2.42;;;11.60;99.90;;;;;;4993987;28;20049;-64
2022/05/22 01:44:58;;;;;;;7.57;2.80;;;11.50;99.90;;;;;;4994814;28;20050;-64
2022/05/22 01:47:24;;;;;;;6.55;3.28;;;11.50;99.90;;;;;;4998163;28;20061;-64
2022/05/22 01:49:54;;;;;;;4.35;3.17;;;11.50;99.90;;;;;;4993461;28;20470;-64
2022/05/22 01:52:21;;;;;;;5.07;3.30;;;11.40;99.90;;;;;;4977311;28;20073;-64
2022/05/22 01:54:48;;;;;;;6.30;3.13;;;11.50;99.90;;;;;;4976670;28;20053;-64
2022/05/22 01:57:16;;;;;;;5.47;2.63;;;11.60;99.90;;;;;;4993792;28;20050;-65
2022/05/22 01:59:43;;;;;;;6.75;2.92;;;11.70;99.90;;;;;;4977305;28;20422;-64
2022/05/22 02:02:22;;;;;;;4.43;3.10;;;11.70;99.90;;;;;;4977534;28;20042;-64
2022/05/22 02:04:49;;;;;;;4.18;3.22;;;11.70;99.90;;;;;;4993430;28;20073;-64
2022/05/22 02:10:07;;;;;;;11.85;3.25;;;11.60;99.90;;;;;;4976840;28;20050;-64
2022/05/22 02:12:34;;;;;;;5.93;3.10;;;11.60;99.90;;;;;;4980545;28;20046;-63
2022/05/22 02:15:05;;;;;;;6.95;2.90;;;11.50;99.90;;;;;;4977154;28;20038;-64
2022/05/22 02:17:33;;;;;;;4.50;2.85;;;11.60;99.90;;;;;;4977003;28;20046;-64
2022/05/22 02:20:00;;;;;;;5.47;2.90;;;11.60;99.90;;;;;;4997083;28;20147;-64
2022/05/22 02:22:48;;;;;;;10.30;3.15;;;11.60;99.90;;;;;;4993248;28;20050;-64
2022/05/22 02:25:34;;;;;;;3.28;2.53;;;11.60;99.90;;;;;;4993142;28;20133;-64
2022/05/22 02:28:07;;;;;;;5.18;2.95;;;11.50;99.90;;;;;;4994760;28;20046;-64
2022/05/22 02:30:39;;;;;;;6.57;2.60;;;11.40;99.90;;;;;;4976277;28;20146;-64
2022/05/22 02:33:07;;;;;;;4.93;2.28;;;11.40;99.90;;;;;;4992918;28;20066;-64
2022/05/22 02:35:47;;;;;;;5.55;2.60;;;11.30;99.90;;;;;;4992613;28;20057;-64
2022/05/22 02:38:20;;;;;;;12.95;3.00;;;11.20;99.90;;;;;;4989087;28;20035;-64
2022/05/22 02:40:50;;;;;;;5.80;2.80;;;11.10;99.90;;;;;;4973135;28;20051;-64
2022/05/22 02:43:17;;;;;;;7.15;3.05;;;11.10;99.90;;;;;;4973439;28;20142;-64
2022/05/22 02:45:51;;;;;;;4.18;3.08;;;11.10;99.90;;;;;;4976448;28;20042;-64
2022/05/22 02:48:18;;;;;;;3.47;2.70;;;11.10;99.90;;;;;;4970111;28;20055;-64
2022/05/22 02:50:59;;;;;;;3.78;2.83;;;11.10;99.90;;;;;;4972991;28;20113;-64
2022/05/22 02:53:26;;;;;;;4.53;2.88;;;11.20;99.90;;;;;;4962886;28;20045;-64
2022/05/22 02:56:27;;;;;;;6.20;2.67;;;11.10;99.90;;;;;;4950398;28;20134;-64
2022/05/22 02:59:27;;;;;;;6.45;2.65;;;11.10;99.90;;;;;;4992716;28;20499;-63
2022/05/22 03:02:10;;;;;;;4.93;2.53;;;11.10;99.90;;;;;;4992493;28;20100;-64
2022/05/22 03:04:39;;;;;;;4.82;2.63;;;11.10;99.90;;;;;;4999111;28;20053;-65
2022/05/22 03:07:15;;;;;;;8.48;2.50;;;11.10;99.90;;;;;;4992238;28;20050;-64
2022/05/22 03:09:46;;;;;;;6.47;2.47;;;11.10;99.90;;;;;;4976183;28;20050;-64
2022/05/22 03:12:18;;;;;;;6.60;2.65;;;11.10;99.90;;;;;;4975411;28;20117;-64
2022/05/22 03:14:52;;;;;;;3.97;2.90;;;11.10;99.90;;;;;;4990735;28;20141;-64
2022/05/22 03:17:19;;;;;;;4.40;2.53;;;11.10;99.90;;;;;;4993475;28;20042;-64
2022/05/22 03:19:53;;;;;;;4.20;2.63;;;11.00;99.90;;;;;;5007950;28;20411;-64
2022/05/22 03:22:48;;;;;;;6.85;2.35;;;11.00;99.90;;;;;;5007495;23;20054;-66
2022/05/22 03:26:19;;;;;;;4.30;2.38;;;11.00;99.90;;;;;;4997735;28;20533;-66
2022/05/22 03:28:46;;;;;;;7.07;2.40;;;11.00;99.90;;;;;;4986913;28;20055;-66
2022/05/22 03:31:16;;;;;;;5.22;2.58;;;11.00;99.90;;;;;;4993415;28;20060;-66
2022/05/22 03:33:43;;;;;;;7.85;2.95;;;10.90;99.90;;;;;;4995142;28;20410;-68
2022/05/22 03:36:11;;;;;;;3.05;2.20;;;11.00;99.90;;;;;;4995144;28;20046;-68
2022/05/22 03:38:38;;;;;;;5.47;2.28;;;10.90;99.90;;;;;;4999883;28;20054;-68
2022/05/22 03:41:05;;;;;;;3.72;2.67;;;10.90;99.90;;;;;;5003720;28;20042;-68
2022/05/22 03:43:38;;;;;;;3.55;2.50;;;10.90;99.90;;;;;;5011132;28;20081;-68
2022/05/22 03:46:14;;;;;;;4.90;2.60;;;10.80;99.90;;;;;;5011446;28;20467;-66
2022/05/22 03:48:46;;;;;;;3.38;2.50;;;10.90;99.90;;;;;;5001009;28;20108;-68
2022/05/22 03:51:13;;;;;;;4.07;2.83;;;10.90;99.90;;;;;;5004606;28;20101;-69
2022/05/22 03:53:39;;;;;;;9.35;2.90;;;10.80;99.90;;;;;;5011164;28;20048;-69
2022/05/22 03:56:17;;;;;;;5.07;3.00;;;10.90;99.90;;;;;;5008951;28;20054;-68
2022/05/22 03:58:45;;;;;;;3.55;2.85;;;10.90;99.90;;;;;;5002614;28;20057;-69
2022/05/22 04:01:13;;;;;;;6.32;2.15;;;10.90;99.90;;;;;;5010601;28;20141;-68
2022/05/22 04:03:48;;;;;;;5.28;2.70;;;10.90;99.90;;;;;;5009678;28;20046;-68
2022/05/22 04:06:19;;;;;;;3.17;2.65;;;11.00;99.90;;;;;;4992531;28;20529;-68
2022/05/22 04:08:46;;;;;;;4.88;2.13;;;11.00;99.90;;;;;;4995955;28;20068;-68
2022/05/22 04:11:16;;;;;;;6.35;2.72;;;11.10;99.90;;;;;;4994252;28;20034;-68
2022/05/22 04:13:45;;;;;;;6.65;2.40;;;11.10;99.90;;;;;;4993660;28;20042;-68
2022/05/22 04:16:12;;;;;;;3.55;2.80;;;11.10;99.90;;;;;;5018997;28;20419;-68
2022/05/22 04:18:40;;;;;;;2.75;2.30;;;11.10;99.90;;;;;;5010848;28;20049;-68
2022/05/22 04:21:08;;;;;;;6.55;3.22;;;11.20;99.90;;;;;;5010209;28;20140;-68
2022/05/22 04:26:39;;;;;;;3.70;2.38;;;11.30;99.90;;;;;;5041180;28;20054;-68
2022/05/22 04:29:10;;;;;;;4.43;3.17;;;11.40;99.90;;;;;;5010711;28;20137;-68
2022/05/22 04:31:37;;;;;;;5.50;2.60;;;11.40;99.90;;;;;;5000142;28;20129;-68
2022/05/22 04:34:13;;;;;;;5.50;2.42;;;11.40;99.90;;;;;;5004417;28;20081;-68
2022/05/22 04:36:40;;;;;;;3.80;2.72;;;11.60;99.90;;;;;;5010636;28;20062;-68
2022/05/22 04:39:11;;;;;;;4.60;2.65;;;11.60;99.90;;;;;;5010730;28;20061;-68
2022/05/22 04:41:50;;;;;;;5.55;2.42;;;11.70;99.90;;;;;;5000724;28;20426;-68
2022/05/22 04:44:18;;;;;;;;;;;11.80;99.90;;;;;;5010761;28;20058;-68
2022/05/22 04:46:49;;;;;;;10.95;3.03;;;11.90;99.90;;;;;;5010526;28;19921;-68
2022/05/22 04:49:16;;;;;;;;;;;12.00;99.90;;;;;;5006775;28;20403;-69
2022/05/22 04:51:43;;;;;;;13.60;3.30;;;12.10;99.90;;;;;;5016035;28;19929;-68
2022/05/22 04:54:10;;;;;;;5.13;2.50;;;12.20;99.90;;;;;;5010376;28;20506;-69
2022/05/22 04:56:41;;;;;;;5.20;2.78;;;12.30;99.90;;;;;;5010048;28;20041;-68
2022/05/22 04:59:16;;;;;;;7.78;3.30;;;12.30;99.90;;;;;;5006502;28;20053;-69
2022/05/22 05:01:43;;;;;;;6.30;3.22;;;12.30;99.90;;;;;;5001480;28;20090;-68
2022/05/22 05:04:13;;;;;;;5.55;2.70;;;12.30;99.90;;;;;;5010247;28;20050;-69
2022/05/22 05:06:55;;;;;;;7.38;2.72;;;12.30;99.90;;;;;;4995934;28;20045;-68
2022/05/22 05:09:42;;;;;;;6.05;2.40;;;12.30;99.90;;;;;;4999610;28;20042;-69
2022/05/22 05:12:15;;;;;;;4.95;2.67;;;12.40;99.90;;;;;;5003980;28;20531;-68
2022/05/22 05:14:41;;;;;;;7.72;2.90;;;12.50;99.90;;;;;;5010190;28;20050;-69
2022/05/22 05:17:10;;;;;;;;;;;12.50;99.90;;;;;;5001745;28;20054;-68
2022/05/22 05:19:38;;;;;;;;;;;12.70;99.90;;;;;;4994589;28;19925;-68
2022/05/22 05:22:05;;;;;;;4.57;2.70;;;12.80;99.90;;;;;;5001293;28;19944;-69
2022/05/22 05:24:33;;;;;;;4.50;2.97;;;13.00;99.90;;;;;;5010097;28;20434;-69
2022/05/22 05:27:01;;;;;;;3.47;2.83;;;13.10;99.90;;;;;;5010058;28;20060;-68
2022/05/22 05:29:59;;;;;;;5.18;2.75;;;13.20;99.90;;;;;;5005982;28;20033;-69
2022/05/22 05:32:26;;;;;;;6.50;2.80;;;13.30;99.90;;;;;;5005450;28;20048;-69
2022/05/22 05:35:03;;;;;;;5.00;2.10;;;13.90;99.90;;;;;;5010055;28;20046;-68
2022/05/22 05:37:34;;;;;;;4.18;2.17;;;13.60;99.90;;;;;;5010122;28;20049;-68
2022/05/22 05:40:19;;;;;;;7.70;2.60;;;13.60;99.90;;;;;;5002319;28;20057;-68
2022/05/22 05:42:48;;;;;;;4.75;2.95;;;13.70;99.90;;;;;;5011037;28;20054;-68
2022/05/22 05:45:17;;;;;;;5.22;2.50;;;13.90;99.90;;;;;;5013432;28;20050;-68
2022/05/22 05:47:52;;;;;;;5.28;2.40;;;14.00;99.90;;;;;;5036185;28;20647;-68
2022/05/22 05:50:32;;;;;;;10.35;2.45;;;14.10;99.90;;;;;;5014311;28;20129;-69
2022/05/22 05:53:08;;;;;;;5.93;2.75;;;14.20;99.90;;;;;;5013386;28;20112;-66
2022/05/22 05:55:38;;;;;;;6.10;2.80;;;14.20;99.90;;;;;;5007257;28;20054;-66
2022/05/22 05:58:25;;;;;;;6.30;2.80;;;14.30;99.90;;;;;;5014756;28;20134;-68
2022/05/22 06:01:24;;;;;;;4.93;3.58;;;14.20;99.90;;;;;;5012643;28;20141;-66
2022/05/22 06:03:52;;;;;;;7.15;3.05;;;14.20;99.90;;;;;;5008744;28;20445;-68
2022/05/22 06:06:20;;;;;;;4.10;2.78;;;14.20;99.90;;;;;;5014327;28;20038;-66
2022/05/22 06:08:47;;;;;;;4.25;2.30;;;14.20;99.90;;;;;;5013195;28;20050;-68
2022/05/22 06:11:26;;;;;;;9.35;2.92;;;14.30;99.90;;;;;;5012729;28;20046;-69
2022/05/22 06:13:55;;;;;;;5.43;3.35;;;14.40;99.90;;;;;;5004558;28;20100;-68
2022/05/22 06:16:22;;;;;;;6.15;2.67;;;14.40;99.90;;;;;;5013019;28;20053;-69
2022/05/22 06:18:57;;;;;;;6.03;2.55;;;14.30;99.90;;;;;;5012894;28;20535;-68
2022/05/22 06:21:24;;;;;;;3.95;2.13;;;14.30;99.90;;;;;;5003089;28;20049;-69
2022/05/22 06:23:51;;;;;;;3.03;2.35;;;14.30;99.90;;;;;;5004620;28;20050;-69
2022/05/22 06:26:41;;;;;;;5.32;2.50;;;14.40;99.90;;;;;;5013933;28;20052;-68
2022/05/22 06:29:29;;;;;;;8.47;2.20;;;14.50;99.90;;;;;;5013149;28;20072;-68
2022/05/22 06:32:17;;;;;;;5.95;2.20;;;14.60;99.90;;;;;;5008248;28;20584;-69
2022/05/22 06:35:01;;;;;;;3.35;2.50;;;14.80;99.90;;;;;;5012508;28;20053;-69
2022/05/22 06:37:54;;;;;;;2.70;2.00;;;15.10;99.90;;;;;;4981658;28;20057;-69
2022/05/22 06:40:39;;;;;;;4.00;2.35;;;15.40;99.90;;;;;;5013524;28;20061;-68
2022/05/22 06:43:35;;;;;;;8.93;2.75;;;15.70;99.90;;;;;;5012269;28;20414;-68
2022/05/22 06:46:31;;;;;;;5.40;2.45;;;15.70;99.90;;;;;;4989104;28;20104;-69
2022/05/22 06:49:33;;;;;;;5.55;2.95;;;15.80;99.90;;;;;;4925877;29;20046;-68
2022/05/22 06:52:22;;;;;;;5.30;2.45;;;16.10;99.90;;;;;;4992857;28;20050;-68
2022/05/22 06:54:54;;;;;;;2.80;2.20;;;16.30;99.90;;;;;;5002052;28;20042;-68
2022/05/22 06:57:28;;;;;;;3.10;2.20;;;16.40;99.90;;;;;;5007971;28;20046;-69
2022/05/22 07:00:18;;;;;;;3.25;2.38;;;16.60;99.90;;;;;;5011274;28;20132;-68
2022/05/22 07:03:03;;;;;;;4.93;2.35;;;16.60;99.90;;;;;;4998258;28;20165;-68
2022/05/22 07:05:49;;;;;;;3.30;2.20;;;16.70;99.90;;;;;;5013201;28;20145;-68
2022/05/22 07:08:36;;;;;;;5.38;2.22;;;16.90;99.90;;;;;;5012875;28;20085;-69
2022/05/22 07:11:40;;;;;;;2.92;2.20;;;17.00;99.90;;;;;;5006460;28;20046;-68
2022/05/22 07:14:27;;;;;;;3.53;1.80;;;17.20;99.90;;;;;;5009156;28;20411;-68
2022/05/22 07:17:12;;;;;;;3.83;1.95;;;17.30;99.90;;;;;;5013151;28;20141;-68
2022/05/22 07:19:45;;;;;;;6.53;2.30;;;17.40;99.90;;;;;;4980131;28;20458;-69
2022/05/22 07:22:34;;;;;;;3.30;1.85;;;17.60;99.90;;;;;;5017373;28;20053;-69
2022/05/22 07:25:20;;;;;;;4.60;1.75;;;17.70;99.90;;;;;;4995407;28;20096;-68
2022/05/22 07:28:04;;;;;;;4.15;2.35;;;17.70;99.90;;;;;;4993765;28;20050;-69
2022/05/22 07:31:17;;;;;;;3.30;2.10;;;17.70;99.90;;;;;;4987598;28;20508;-67
2022/05/22 07:34:04;;;;;;;4.93;2.05;;;17.80;99.90;;;;;;4992387;28;20431;-68
2022/05/22 07:36:31;;;;;;;4.80;2.15;;;17.90;99.90;;;;;;4993050;28;20109;-68
2022/05/22 07:39:31;;;;;;;3.08;1.80;;;17.90;99.90;;;;;;4962678;28;20649;-68
2022/05/22 07:41:57;;;;;;;2.28;1.70;;;17.90;99.90;;;;;;5006582;28;20405;-68
2022/05/22 07:44:47;;;;;;;6.35;2.00;;;17.90;99.90;;;;;;4998917;28;20123;-68
2022/05/22 07:47:30;;;;;;;2.55;1.65;;;18.00;99.90;;;;;;4993379;28;20923;-68
2022/05/22 07:50:20;;;;;;;3.28;2.33;;;18.10;99.90;;;;;;5005226;28;20049;-68
2022/05/22 07:52:53;;;;;;;3.50;2.22;;;18.20;99.90;;;;;;5009869;28;20462;-69
2022/05/22 07:55:29;;;;;;;2.20;1.92;;;18.20;99.90;;;;;;4993032;28;20065;-68
2022/05/22 07:58:15;;;;;;;3.72;1.98;;;18.40;99.90;;;;;;5006290;28;20406;-68
2022/05/22 08:00:42;;;;;;;;;;;18.60;99.90;;;;;;5012154;28;20042;-68
2022/05/22 08:03:13;;;;;;;5.53;1.83;;;18.60;99.90;;;;;;5010675;28;20392;-68
2022/05/22 08:05:50;;;;;;;3.47;1.92;;;18.80;99.90;;;;;;5001553;28;20516;-68
2022/05/22 08:08:17;;;;;;;2.97;2.03;;;18.90;99.90;;;;;;5010423;28;20046;-68
2022/05/22 08:10:56;;;;;;;4.25;1.85;;;18.90;99.90;;;;;;5010491;28;20442;-68
2022/05/22 08:13:28;;;;;;;4.82;2.08;;;19.00;99.90;;;;;;5003863;28;20042;-68
2022/05/22 08:15:55;;;;;;;4.10;1.98;;;19.10;99.90;;;;;;5010210;28;20078;-68
2022/05/22 08:18:29;;;;;;;3.08;2.00;;;19.20;99.90;;;;;;5010844;28;20057;-68
2022/05/22 08:20:56;;;;;;;2.13;1.63;;;19.20;99.90;;;;;;5042983;28;20057;-68
2022/05/22 08:23:25;;;;;;;3.53;1.67;;;19.30;99.90;;;;;;5003891;28;20054;-68
2022/05/22 08:26:01;;;;;;;2.75;1.50;;;19.40;99.90;;;;;;4995378;28;20040;-68
2022/05/22 08:28:30;;;;;;;3.38;1.80;;;19.60;99.90;;;;;;4993056;28;20056;-68
2022/05/22 08:30:57;;;;;;;4.07;1.90;;;19.70;99.90;;;;;;4990846;28;20053;-68
2022/05/22 08:33:25;;;;;;;4.88;1.90;;;19.70;99.90;;;;;;5000243;28;20042;-68
2022/05/22 08:35:52;;;;;;;4.55;1.98;;;19.70;99.90;;;;;;5021718;28;20519;-68
2022/05/22 08:38:19;;;;;;;4.35;1.90;;;19.70;99.90;;;;;;5021418;28;20049;-67
2022/05/22 08:41:08;;;;;;;;;;;19.60;99.90;;;;;;4999085;28;20092;-67
2022/05/22 08:43:43;;;;;;;4.75;1.73;;;19.50;99.90;;;;;;5011517;28;19975;-68
2022/05/22 08:46:13;;;;;;;6.88;1.90;;;19.60;99.90;;;;;;5011561;28;20037;-67
2022/05/22 08:48:53;;;;;;;2.78;1.83;;;19.50;99.90;;;;;;5005304;28;20045;-68
2022/05/22 08:51:44;;;;;;;4.78;1.85;;;19.60;99.90;;;;;;5016218;28;20046;-68
2022/05/22 08:54:43;;;;;;;3.10;1.90;;;19.60;99.90;;;;;;5018032;28;20410;-68
2022/05/22 09:00:31;;;;;;;3.53;2.03;;;19.70;99.90;;;;;;5012150;28;20054;-68
2022/05/22 09:03:04;;;;;;;5.15;1.85;;;19.80;99.90;;;;;;5001871;28;20048;-68
2022/05/22 09:05:33;;;;;;;5.78;2.45;;;19.80;99.90;;;;;;5012169;28;20064;-68
2022/05/22 09:08:06;;;;;;;4.90;2.10;;;19.80;99.90;;;;;;5018944;28;20045;-67
2022/05/22 09:10:55;;;;;;;2.42;2.10;;;19.90;99.90;;;;;;5017933;28;20124;-68
2022/05/22 09:13:39;;;;;;;5.10;2.10;;;19.90;99.90;;;;;;5029624;28;20049;-68
2022/05/22 09:16:16;;;;;;;3.53;2.40;;;19.90;99.90;;;;;;5013384;28;20054;-67
2022/05/22 09:19:09;;;;;;;7.65;2.60;;;20.00;99.90;;;;;;5005574;28;20045;-68
2022/05/22 09:21:42;;;;;;;5.30;2.30;;;20.00;99.90;;;;;;5014751;28;20143;-68
2022/05/22 09:24:35;;;;;;;6.30;2.72;;;20.00;99.90;;;;;;5013268;28;20073;-68
2022/05/22 09:27:11;;;;;;;3.70;2.97;;;20.00;99.90;;;;;;5003319;28;20050;-67
2022/05/22 09:30:16;;;;;;;6.53;2.90;;;20.00;99.90;;;;;;5014803;28;20556;-68
2022/05/22 09:33:13;;;;;;;8.93;3.33;;;20.00;99.90;;;;;;5015034;28;20065;-68
2022/05/22 09:35:49;;;;;;;6.20;2.22;;;20.20;99.90;;;;;;5031409;23;20038;-64
2022/05/22 09:39:13;;;;;;;4.25;2.60;;;20.30;99.90;;;;;;5033613;28;20092;-64
2022/05/22 09:42:07;;;;;;;4.20;2.40;;;20.20;99.90;;;;;;5031789;28;20049;-64
2022/05/22 09:45:05;;;;;;;4.05;2.45;;;20.20;99.90;;;;;;5032816;28;20111;-64
2022/05/22 09:47:53;;;;;;;4.28;2.55;;;20.40;99.90;;;;;;5000306;28;20138;-64
2022/05/22 09:50:55;;;;;;;5.85;2.63;;;20.60;99.90;;;;;;5012077;28;20045;-64
2022/05/22 09:53:39;;;;;;;6.68;2.38;;;20.70;99.90;;;;;;5014776;28;20061;-63
2022/05/22 09:56:16;;;;;;;4.10;2.42;;;20.80;99.90;;;;;;5009089;28;20181;-64
2022/05/22 09:58:58;;;;;;;5.10;2.60;;;20.70;99.90;;;;;;5012624;28;20096;-63
2022/05/22 10:01:30;;;;;;;2.53;2.33;;;20.70;99.90;;;;;;5014158;28;20045;-63
2022/05/22 10:04:19;;;;;;;3.05;2.22;;;20.90;99.90;;;;;;5010555;28;20034;-63
2022/05/22 10:07:01;;;;;;;4.53;2.38;;;20.90;99.90;;;;;;5012586;28;20100;-63
2022/05/22 10:09:41;;;;;;;5.13;2.63;;;20.90;99.90;;;;;;5014429;28;20057;-64
2022/05/22 10:12:42;;;;;;;7.78;2.47;;;21.00;99.90;;;;;;5013485;28;20053;-63
2022/05/22 10:15:40;;;;;;;7.03;2.90;;;21.00;99.90;;;;;;5007431;28;20084;-63
2022/05/22 10:18:44;;;;;;;4.75;2.13;;;21.00;99.90;;;;;;5012301;28;20116;-63
2022/05/22 10:21:27;;;;;;;5.60;2.42;;;21.00;99.90;;;;;;5007895;28;20093;-63
2022/05/22 10:24:12;;;;;;;4.93;2.10;;;20.90;99.90;;;;;;5013560;28;20572;-63
2022/05/22 10:27:08;;;;;;;4.18;2.20;;;21.00;99.90;;;;;;5014056;28;20041;-64
2022/05/22 10:29:41;;;;;;;4.03;2.05;;;21.00;99.90;;;;;;5012397;28;20092;-63
2022/05/22 10:32:19;;;;;;;3.65;2.13;;;21.10;99.90;;;;;;5005327;28;20053;-63
2022/05/22 10:34:55;;;;;;;4.07;1.90;;;21.10;99.90;;;;;;5013806;28;20033;-63
2022/05/22 10:37:40;;;;;;;4.18;1.80;;;21.20;99.90;;;;;;5013846;28;20410;-63
2022/05/22 10:40:16;;;;;;;3.78;1.67;;;21.20;99.90;;;;;;5012802;28;20446;-64
2022/05/22 10:42:47;;;;;;;5.30;1.92;;;21.40;99.90;;;;;;5005551;28;20046;-63
2022/05/22 10:45:33;;;;;;;4.13;1.90;;;21.40;99.90;;;;;;5013586;28;20041;-63
2022/05/22 10:48:10;;;;;;;2.80;1.90;;;21.40;99.90;;;;;;5013494;28;20080;-64
2022/05/22 10:50:49;;;;;;;4.43;2.10;;;21.40;99.90;;;;;;5008045;28;20692;-64
2022/05/22 10:53:46;;;;;;;7.70;1.48;;;21.50;99.90;;;;;;5008064;28;20499;-63
2022/05/22 10:56:23;;;;;;;2.58;1.90;;;21.50;99.90;;;;;;5004391;28;20084;-64
2022/05/22 10:58:52;;;;;;;4.57;2.03;;;21.60;99.90;;;;;;5010507;28;20049;-63
2022/05/22 11:01:32;;;;;;;4.53;1.65;;;21.70;99.90;;;;;;5007641;28;20396;-64
2022/05/22 11:04:06;;;;;;;3.47;2.33;;;21.90;99.90;;;;;;5013367;28;20070;-63
2022/05/22 11:06:36;;;;;;;2.63;1.75;;;21.90;99.90;;;;;;5011095;28;20478;-63
2022/05/22 11:09:05;;;;;;;4.00;1.98;;;21.90;99.90;;;;;;5000891;28;20100;-63
2022/05/22 11:11:35;;;;;;;2.50;1.58;;;21.80;99.90;;;;;;4993162;28;20093;-63
2022/05/22 11:14:07;;;;;;;2.92;1.90;;;21.90;99.90;;;;;;5004679;28;20096;-63
2022/05/22 11:16:34;;;;;;;2.78;2.03;;;21.90;99.90;;;;;;5004799;28;20457;-63
2022/05/22 11:19:25;;;;;;;4.93;2.38;;;21.90;99.90;;;;;;5013019;28;20045;-63
2022/05/22 11:22:05;;;;;;;5.03;2.10;;;21.90;99.90;;;;;;5011852;28;20068;-63
2022/05/22 11:24:56;;;;;;;7.40;2.13;;;21.90;99.90;;;;;;5004559;28;20053;-63
2022/05/22 11:27:55;;;;;;;2.90;1.80;;;22.00;99.90;;;;;;5012471;28;20379;-63
2022/05/22 11:31:01;;;;;;;4.47;2.00;;;22.40;99.90;;;;;;5001162;28;20034;-63
2022/05/22 11:33:28;;;;;;;2.78;2.22;;;22.60;99.90;;;;;;4993079;28;20038;-63
2022/05/22 11:36:23;;;;;;;3.25;2.10;;;22.60;99.90;;;;;;4999136;28;20404;-63
2022/05/22 11:39:25;;;;;;;4.88;2.33;;;22.80;99.90;;;;;;5000123;28;20054;-63
2022/05/22 11:41:55;;;;;;;4.13;1.90;;;23.20;99.90;;;;;;5007801;28;20065;-63
2022/05/22 11:44:46;;;;;;;7.20;2.05;;;23.20;99.90;;;;;;4999946;28;20388;-63
2022/05/22 11:47:41;;;;;;;3.40;2.33;;;23.20;99.90;;;;;;5006407;28;20046;-63
2022/05/22 11:50:33;;;;;;;5.25;1.98;;;23.10;99.90;;;;;;5003258;28;20125;-63
2022/05/22 11:53:33;;;;;;;3.72;2.15;;;23.00;99.90;;;;;;4995969;28;20170;-63
2022/05/22 11:56:43;;;;;;;6.57;2.17;;;22.70;99.90;;;;;;5006935;28;20033;-63
2022/05/22 11:59:39;;;;;;;5.82;2.40;;;22.30;99.90;;;;;;4967286;28;20566;-63
2022/05/22 12:02:33;;;;;;;5.00;2.20;;;22.00;99.90;;;;;;4996250;28;20050;-63
2022/05/22 12:05:17;;;;;;;;;;;22.00;99.90;;;;;;5004332;28;20536;-63
2022/05/22 12:08:30;;;;;;;3.92;2.20;;;22.00;99.90;;;;;;5010330;28;20345;-63
2022/05/22 12:11:33;;;;;;;3.03;2.25;;;22.10;99.90;;;;;;4996146;28;20046;-63
2022/05/22 12:14:26;;;;;;;4.10;2.60;;;21.80;99.90;;;;;;5000868;28;20046;-63
2022/05/22 12:17:07;;;;;;;3.88;2.13;;;21.50;99.90;;;;;;5001948;28;20046;-63
2022/05/22 12:19:43;;;;;;;3.85;2.17;;;21.40;99.90;;;;;;5003358;28;20799;-63
2022/05/22 12:22:19;;;;;;;3.35;2.30;;;21.20;99.90;;;;;;5011649;28;20096;-63
2022/05/22 12:24:46;;;;;;;3.03;2.33;;;20.90;99.90;;;;;;5011894;28;20410;-63
2022/05/22 12:27:21;;;;;;;5.82;2.58;;;20.70;99.90;;;;;;5005476;28;20085;-63
2022/05/22 12:29:58;;;;;;;8.00;2.50;;;20.60;99.90;;;;;;5010097;28;20038;-63
2022/05/22 12:32:26;;;;;;;6.90;2.55;;;20.70;99.90;;;;;;5011725;28;20450;-63
2022/05/22 12:34:57;;;;;;;6.72;2.05;;;21.20;99.90;;;;;;5002550;28;20408;-63
2022/05/22 12:37:39;;;;;;;8.35;2.70;;;21.70;99.90;;;;;;5004705;28;20181;-63
2022/05/22 12:40:27;;;;;;;3.55;2.50;;;21.70;99.90;;;;;;4998315;28;20045;-63
2022/05/22 12:42:59;;;;;;;7.40;2.17;;;21.80;99.90;;;;;;5008345;28;20035;-63
2022/05/22 12:45:28;;;;;;;5.07;2.72;;;22.20;99.90;;;;;;5004284;28;20045;-63
2022/05/22 12:48:07;;;;;;;2.42;2.20;;;22.40;99.90;;;;;;4996449;28;20033;-63
2022/05/22 12:50:51;;;;;;;3.17;2.20;;;22.60;99.90;;;;;;4995373;28;20053;-63
2022/05/22 12:53:29;;;;;;;3.50;2.50;;;22.70;99.90;;;;;;5003779;28;20050;-63
2022/05/22 12:56:15;;;;;;;4.35;2.03;;;22.40;99.90;;;;;;5011968;28;20128;-63
2022/05/22 12:58:55;;;;;;;4.22;2.53;;;22.40;99.90;;;;;;5008714;28;20450;-63
2022/05/22 13:01:39;;;;;;;4.00;1.98;;;22.60;99.90;;;;;;5016947;28;20112;-64
2022/05/22 13:04:15;;;;;;;2.70;2.13;;;22.80;99.90;;;;;;5003743;28;20053;-63
2022/05/22 13:06:58;;;;;;;5.20;2.40;;;23.00;99.90;;;;;;5016081;28;20050;-63
2022/05/22 13:09:41;;;;;;;4.20;2.20;;;23.10;99.90;;;;;;5018124;28;20041;-64
2022/05/22 13:12:15;;;;;;;6.00;2.50;;;22.90;99.90;;;;;;5011971;28;20411;-63
2022/05/22 13:14:50;;;;;;;7.47;2.33;;;22.90;99.90;;;;;;5015968;28;20053;-63
2022/05/22 13:17:30;;;;;;;5.88;2.50;;;22.90;99.90;;;;;;5011147;28;20050;-63
2022/05/22 13:20:02;;;;;;;5.90;2.17;;;22.80;99.90;;;;;;5012975;28;20116;-63
2022/05/22 13:22:35;;;;;;;3.55;2.20;;;23.00;99.90;;;;;;5009501;28;20046;-63
2022/05/22 13:25:05;;;;;;;4.25;2.30;;;23.30;99.90;;;;;;5004688;28;20046;-63
2022/05/22 13:27:40;;;;;;;4.65;2.20;;;23.40;99.90;;;;;;5012494;28;20080;-63
2022/05/22 13:30:17;;;;;;;3.25;2.15;;;23.50;99.90;;;;;;5009146;28;20045;-63
2022/05/22 13:33:00;;;;;;;5.95;2.50;;;23.40;99.90;;;;;;5018001;28;20049;-63
2022/05/22 13:35:34;;;;;;;4.70;2.20;;;23.50;99.90;;;;;;5016348;28;20046;-63
2022/05/22 13:38:01;;;;;;;6.13;2.40;;;23.80;99.90;;;;;;5005594;28;20046;-62
2022/05/22 13:40:35;;;;;;;4.00;2.40;;;23.80;99.90;;;;;;5013369;28;20625;-62
2022/05/22 13:43:05;;;;;;;8.85;2.40;;;23.60;99.90;;;;;;5017439;28;20099;-64
2022/05/22 13:46:07;;;;;;;4.45;2.63;;;23.50;99.90;;;;;;5012511;28;20558;-63
2022/05/22 13:48:55;;;;;;;5.20;2.47;;;23.50;99.90;;;;;;4993852;28;20123;-64
2022/05/22 13:54:40;;;;;;;5.22;2.40;;;23.60;99.90;;;;;;5005499;28;20105;-64